Time;durP1;ratioP1;P1;durP2;ratioP2;P2;SDS_P1;SDS_P2;PMS_P1;PMS_P2;Temp;Humidity;BMP_temperature;BMP_pressure;BME280_temperature;BME280_humidity;BME280_pressure;Samples;Min_cycle;Max_cycle;Signal;HPM_P1;HPM_P2
2023/05/08 00:01:48;;;;;;;0.10;0.10;;;7.30;99.90;;;;;;5034880;28;20052;-73
2023/05/08 00:04:13;;;;;;;0.20;0.20;;;7.30;99.90;;;;;;5035453;28;20021;-73
2023/05/08 00:06:39;;;;;;;0.20;0.20;;;7.40;99.90;;;;;;5035472;28;20398;-72
2023/05/08 00:09:05;;;;;;;0.30;0.30;;;7.30;99.90;;;;;;5035956;28;20100;-73
2023/05/08 00:11:30;;;;;;;0.30;0.30;;;7.40;99.90;;;;;;5035832;28;20034;-73
2023/05/08 00:13:56;;;;;;;0.10;0.10;;;7.30;99.90;;;;;;5034661;28;20026;-73
2023/05/08 00:16:21;;;;;;;0.10;0.10;;;7.30;99.90;;;;;;5035460;28;20025;-73
2023/05/08 00:18:47;;;;;;;0.20;0.20;;;7.30;99.90;;;;;;5035626;28;20116;-72
2023/05/08 00:21:12;;;;;;;0.20;0.20;;;7.30;99.90;;;;;;5035864;28;20159;-73
2023/05/08 00:23:38;;;;;;;0.20;0.20;;;7.30;99.90;;;;;;5034795;28;20079;-72
2023/05/08 00:26:03;;;;;;;0.20;0.20;;;7.20;99.90;;;;;;5034892;28;20021;-72
2023/05/08 00:28:29;;;;;;;0.20;0.20;;;7.20;99.90;;;;;;5034860;28;20514;-72
2023/05/08 00:30:54;;;;;;;0.20;0.20;;;7.10;99.90;;;;;;5034816;28;20038;-73
2023/05/08 00:33:20;;;;;;;0.20;0.20;;;7.10;99.90;;;;;;5034827;28;20394;-73
2023/05/08 00:35:45;;;;;;;0.10;0.10;;;7.00;99.90;;;;;;5034990;28;20463;-72
2023/05/08 00:38:11;;;;;;;0.30;0.30;;;7.00;99.90;;;;;;5034031;28;20083;-72
2023/05/08 00:40:37;;;;;;;0.20;0.20;;;6.90;99.90;;;;;;5034630;28;20100;-72
2023/05/08 00:43:02;;;;;;;0.30;0.30;;;6.90;99.90;;;;;;5025412;28;20052;-72
2023/05/08 00:45:35;;;;;;;0.20;0.20;;;6.90;99.90;;;;;;5018160;28;20026;-72
2023/05/08 00:48:01;;;;;;;0.20;0.20;;;6.80;99.90;;;;;;5033554;28;20025;-72
2023/05/08 00:50:26;;;;;;;0.15;0.15;;;6.80;99.90;;;;;;5034079;28;20083;-72
2023/05/08 00:52:53;;;;;;;0.20;0.20;;;6.90;99.90;;;;;;5034013;28;20096;-72
2023/05/08 00:55:19;;;;;;;0.20;0.20;;;6.90;99.90;;;;;;5034258;28;20036;-72
2023/05/08 00:57:46;;;;;;;0.20;0.20;;;7.00;99.90;;;;;;5033938;28;20483;-72
2023/05/08 01:00:14;;;;;;;0.10;0.10;;;7.00;99.90;;;;;;5033814;28;20093;-71
2023/05/08 01:02:39;;;;;;;0.20;0.20;;;7.00;99.90;;;;;;5027301;28;20109;-72
2023/05/08 01:05:06;;;;;;;0.20;0.20;;;7.10;99.90;;;;;;5026486;28;20108;-71
2023/05/08 01:07:32;;;;;;;0.20;0.20;;;7.30;99.90;;;;;;5032597;28;20040;-72
2023/05/08 01:09:57;;;;;;;0.20;0.20;;;7.40;99.90;;;;;;5033639;28;20029;-72
2023/05/08 01:12:29;;;;;;;0.20;0.20;;;7.40;99.90;;;;;;5033986;28;20029;-72
2023/05/08 01:15:03;;;;;;;0.10;0.10;;;7.50;99.90;;;;;;5034044;28;20029;-72
2023/05/08 01:17:37;;;;;;;0.20;0.20;;;7.60;99.90;;;;;;5034187;28;20037;-72
2023/05/08 01:20:37;;;;;;;0.20;0.20;;;7.50;99.90;;;;;;5034062;28;20018;-72
2023/05/08 01:23:06;;;;;;;0.30;0.30;;;7.50;99.90;;;;;;5027237;28;20045;-72
2023/05/08 01:25:40;;;;;;;0.20;0.20;;;7.50;99.90;;;;;;5033729;28;20026;-72
2023/05/08 01:28:43;;;;;;;0.20;0.20;;;7.50;99.90;;;;;;5033711;28;20022;-72
2023/05/08 01:31:46;;;;;;;0.20;0.20;;;7.40;99.90;;;;;;5033663;28;20030;-72
2023/05/08 01:34:25;;;;;;;0.20;0.20;;;7.40;99.90;;;;;;5033210;28;20021;-72
2023/05/08 01:36:58;;;;;;;0.20;0.20;;;7.40;99.90;;;;;;5033579;28;20052;-72
2023/05/08 01:39:42;;;;;;;0.30;0.30;;;7.30;99.90;;;;;;5033593;28;20105;-72
2023/05/08 01:42:22;;;;;;;0.20;0.20;;;7.30;99.90;;;;;;5033564;28;20025;-72
2023/05/08 01:44:53;;;;;;;0.13;0.13;;;7.30;99.90;;;;;;5033188;28;20025;-72
2023/05/08 01:47:22;;;;;;;0.20;0.20;;;7.20;99.90;;;;;;5033689;28;20028;-72
2023/05/08 01:49:54;;;;;;;0.15;0.15;;;7.20;99.90;;;;;;5033552;28;20030;-72
2023/05/08 01:52:28;;;;;;;0.10;0.10;;;7.20;99.90;;;;;;5033419;28;20029;-72
2023/05/08 01:55:02;;;;;;;0.10;0.10;;;7.20;99.90;;;;;;5033603;28;20108;-72
2023/05/08 01:57:31;;;;;;;0.10;0.10;;;7.10;99.90;;;;;;5031491;28;20067;-72
2023/05/08 02:00:00;;;;;;;0.20;0.20;;;7.10;99.90;;;;;;5033268;28;20475;-72
2023/05/08 02:02:27;;;;;;;0.20;0.20;;;7.00;99.90;;;;;;5033209;28;20033;-72
2023/05/08 02:04:53;;;;;;;0.20;0.20;;;7.00;99.90;;;;;;5033496;28;20073;-72
2023/05/08 02:07:22;;;;;;;0.20;0.20;;;6.90;99.90;;;;;;5033126;28;20038;-72
2023/05/08 02:09:48;;;;;;;0.20;0.20;;;6.80;99.90;;;;;;5033148;28;20037;-72
2023/05/08 02:12:16;;;;;;;0.10;0.10;;;6.80;99.90;;;;;;5032891;28;20033;-72
2023/05/08 02:14:43;;;;;;;0.20;0.20;;;6.80;99.90;;;;;;5032994;28;20028;-72
2023/05/08 02:17:10;;;;;;;0.20;0.20;;;6.60;99.90;;;;;;5032925;28;20029;-72
2023/05/08 02:19:39;;;;;;;0.20;0.20;;;6.60;99.90;;;;;;5033049;28;20037;-72
2023/05/08 02:22:07;;;;;;;0.20;0.20;;;6.50;99.90;;;;;;5032436;28;20021;-72
2023/05/08 02:24:34;;;;;;;0.30;0.30;;;6.50;99.90;;;;;;5033027;28;20391;-72
2023/05/08 02:27:00;;;;;;;0.20;0.20;;;6.60;99.90;;;;;;5032998;28;20030;-72
2023/05/08 02:29:27;;;;;;;0.10;0.10;;;6.50;99.90;;;;;;5033203;28;20029;-72
2023/05/08 02:31:54;;;;;;;0.10;0.10;;;6.50;99.90;;;;;;5032869;28;20048;-72
2023/05/08 02:34:22;;;;;;;0.20;0.20;;;6.50;99.90;;;;;;5034106;28;20048;-72
2023/05/08 02:36:50;;;;;;;0.20;0.20;;;6.50;99.90;;;;;;5032422;28;20464;-72
2023/05/08 02:39:18;;;;;;;0.20;0.20;;;6.50;99.90;;;;;;5036842;28;20068;-72
2023/05/08 02:41:44;;;;;;;0.20;0.20;;;6.60;99.90;;;;;;5022854;28;20484;-72
2023/05/08 02:44:09;;;;;;;0.17;0.17;;;6.70;99.90;;;;;;5018160;28;20064;-72
2023/05/08 02:46:48;;;;;;;0.10;0.10;;;6.80;99.90;;;;;;5016497;28;20018;-72
2023/05/08 02:49:39;;;;;;;0.10;0.10;;;6.90;99.90;;;;;;5016944;28;20156;-72
2023/05/08 02:52:21;;;;;;;0.20;0.20;;;7.00;99.90;;;;;;5022844;28;20026;-72
2023/05/08 02:55:06;;;;;;;0.13;0.13;;;7.00;99.90;;;;;;5036430;28;20034;-72
2023/05/08 02:57:40;;;;;;;0.20;0.20;;;7.10;99.90;;;;;;5035876;28;20017;-72
2023/05/08 03:00:17;;;;;;;0.20;0.20;;;7.10;99.90;;;;;;5036520;28;20018;-72
2023/05/08 03:02:56;;;;;;;0.17;0.17;;;7.00;99.90;;;;;;5036658;28;20030;-72
2023/05/08 03:05:29;;;;;;;0.20;0.20;;;7.00;99.90;;;;;;5027272;28;20073;-72
2023/05/08 03:08:01;;;;;;;0.17;0.17;;;6.90;99.90;;;;;;5015943;28;20046;-72
2023/05/08 03:10:40;;;;;;;0.20;0.20;;;6.90;99.90;;;;;;5018504;28;20022;-72
2023/05/08 03:13:08;;;;;;;0.30;0.30;;;7.00;99.90;;;;;;5016576;28;20045;-72
2023/05/08 03:16:05;;;;;;;0.20;0.20;;;7.00;99.90;;;;;;5016732;28;20018;-72
2023/05/08 03:18:43;;;;;;;0.10;0.10;;;6.90;99.90;;;;;;5006659;28;20030;-72
2023/05/08 03:21:12;;;;;;;0.20;0.20;;;6.80;99.90;;;;;;5017542;28;20454;-72
2023/05/08 03:23:39;;;;;;;0.20;0.20;;;6.80;99.90;;;;;;5016192;28;20022;-72
2023/05/08 03:26:06;;;;;;;0.20;0.20;;;6.70;99.90;;;;;;5015595;28;20040;-72
2023/05/08 03:28:35;;;;;;;0.10;0.10;;;6.70;99.90;;;;;;5016232;28;20057;-72
2023/05/08 03:31:02;;;;;;;0.10;0.10;;;6.60;99.90;;;;;;5016167;28;20033;-72
2023/05/08 03:33:29;;;;;;;0.20;0.20;;;6.50;99.90;;;;;;5016315;28;20054;-72
2023/05/08 03:35:56;;;;;;;0.20;0.20;;;6.50;99.90;;;;;;5016029;28;20112;-72
2023/05/08 03:38:22;;;;;;;0.20;0.20;;;6.50;99.90;;;;;;5015810;28;20030;-71
2023/05/08 03:40:48;;;;;;;0.20;0.20;;;6.50;99.90;;;;;;5015973;28;20032;-72
2023/05/08 03:43:15;;;;;;;0.20;0.20;;;6.50;99.90;;;;;;5015911;28;20073;-72
2023/05/08 03:45:40;;;;;;;0.20;0.20;;;6.50;99.90;;;;;;5015545;28;20034;-72
2023/05/08 03:48:07;;;;;;;0.20;0.20;;;6.50;99.90;;;;;;5015350;28;20037;-71
2023/05/08 03:50:34;;;;;;;0.10;0.10;;;6.50;99.90;;;;;;5015811;28;20034;-72
2023/05/08 03:53:00;;;;;;;0.20;0.20;;;6.60;99.90;;;;;;5016000;28;20041;-72
2023/05/08 03:55:26;;;;;;;0.10;0.10;;;6.60;99.90;;;;;;5015850;28;20021;-72
2023/05/08 03:58:20;;;;;;;0.20;0.20;;;6.60;99.90;;;;;;5015711;28;20018;-72
2023/05/08 04:01:23;;;;;;;0.20;0.20;;;6.60;99.90;;;;;;5015555;28;20025;-71
2023/05/08 04:04:17;;;;;;;0.20;0.20;;;6.60;99.90;;;;;;5016050;28;20026;-72
2023/05/08 04:06:49;;;;;;;0.17;0.17;;;6.70;99.90;;;;;;5015646;28;20041;-72
2023/05/08 04:09:51;;;;;;;0.20;0.20;;;6.80;99.90;;;;;;5016139;28;20034;-72
2023/05/08 04:12:18;;;;;;;0.10;0.10;;;6.90;99.90;;;;;;5015769;28;20028;-72
2023/05/08 04:14:51;;;;;;;0.20;0.20;;;7.00;99.90;;;;;;5015428;28;20048;-72
2023/05/08 04:17:35;;;;;;;0.20;0.20;;;7.10;99.90;;;;;;5016201;28;20076;-72
2023/05/08 04:20:03;;;;;;;0.17;0.17;;;7.30;99.90;;;;;;5015968;28;20093;-72
2023/05/08 04:22:31;;;;;;;0.10;0.10;;;7.40;99.90;;;;;;5015519;28;20372;-72
2023/05/08 04:25:01;;;;;;;0.20;0.20;;;7.50;99.90;;;;;;5015227;28;20022;-72
2023/05/08 04:27:28;;;;;;;0.20;0.20;;;7.60;99.90;;;;;;5014553;28;20037;-72
2023/05/08 04:29:55;;;;;;;0.15;0.15;;;7.70;99.90;;;;;;5015358;28;20030;-72
2023/05/08 04:32:21;;;;;;;0.10;0.10;;;7.90;99.90;;;;;;5014976;28;20157;-72
2023/05/08 04:34:48;;;;;;;0.10;0.10;;;7.90;99.90;;;;;;5014487;28;20424;-72
2023/05/08 04:37:27;;;;;;;0.20;0.20;;;8.00;99.90;;;;;;5015004;28;20535;-72
2023/05/08 04:39:53;;;;;;;0.20;0.20;;;8.00;99.90;;;;;;5015176;28;20522;-72
2023/05/08 04:42:20;;;;;;;0.20;0.20;;;8.10;99.90;;;;;;5014966;28;20030;-72
2023/05/08 04:44:46;;;;;;;0.20;0.20;;;8.20;99.90;;;;;;5014241;28;20033;-71
2023/05/08 04:47:12;;;;;;;0.10;0.10;;;8.30;99.90;;;;;;5014819;28;20507;-72
2023/05/08 04:49:38;;;;;;;0.20;0.20;;;8.30;99.90;;;;;;5015010;28;20140;-73
2023/05/08 04:52:04;;;;;;;0.20;0.20;;;8.40;99.90;;;;;;5014625;28;20484;-73
2023/05/08 04:54:30;;;;;;;0.10;0.10;;;8.40;99.90;;;;;;5014081;28;20034;-72
2023/05/08 04:56:55;;;;;;;0.10;0.10;;;8.50;99.90;;;;;;5013927;28;20092;-73
2023/05/08 04:59:21;;;;;;;0.10;0.10;;;8.60;99.90;;;;;;5014836;28;20025;-72
2023/05/08 05:01:46;;;;;;;0.20;0.20;;;8.70;99.90;;;;;;5014206;28;20084;-72
2023/05/08 05:04:12;;;;;;;0.20;0.20;;;8.70;99.90;;;;;;5014701;28;20447;-73
2023/05/08 05:06:37;;;;;;;0.20;0.20;;;8.80;99.90;;;;;;5014260;28;20069;-72
2023/05/08 05:09:04;;;;;;;0.10;0.10;;;8.90;99.90;;;;;;5014369;28;20041;-71
2023/05/08 05:11:29;;;;;;;0.10;0.10;;;8.90;99.90;;;;;;5013850;28;20072;-71
2023/05/08 05:13:55;;;;;;;0.20;0.20;;;9.00;99.90;;;;;;5017723;28;20062;-71
2023/05/08 05:16:20;;;;;;;0.20;0.20;;;9.10;99.90;;;;;;5029926;28;20028;-71
2023/05/08 05:18:46;;;;;;;0.20;0.20;;;9.10;99.90;;;;;;5022959;28;20488;-71
2023/05/08 05:21:12;;;;;;;0.10;0.10;;;9.20;99.90;;;;;;5029294;28;20022;-71
2023/05/08 05:23:37;;;;;;;0.20;0.20;;;9.20;99.90;;;;;;5025937;28;20418;-71
2023/05/08 05:26:03;;;;;;;0.20;0.20;;;9.30;99.90;;;;;;5013761;28;20034;-71
2023/05/08 05:28:29;;;;;;;0.20;0.20;;;9.20;99.90;;;;;;5033749;28;20033;-71
2023/05/08 05:30:54;;;;;;;0.10;0.10;;;9.30;99.90;;;;;;5033693;28;20063;-71
2023/05/08 05:33:20;;;;;;;0.20;0.20;;;9.30;99.90;;;;;;5033447;28;20029;-72
2023/05/08 05:35:46;;;;;;;0.20;0.20;;;9.40;99.90;;;;;;5033357;28;20068;-71
2023/05/08 05:38:11;;;;;;;0.28;0.28;;;9.40;99.90;;;;;;5033511;28;20028;-71
2023/05/08 05:40:37;;;;;;;0.20;0.20;;;9.40;99.90;;;;;;5033567;28;20390;-72
2023/05/08 05:43:02;;;;;;;0.25;0.25;;;9.50;99.90;;;;;;5030965;28;20485;-71
2023/05/08 05:45:28;;;;;;;0.20;0.20;;;9.50;99.90;;;;;;5033494;28;20029;-72
2023/05/08 05:47:53;;;;;;;0.20;0.20;;;9.60;99.90;;;;;;5033404;28;20057;-72
2023/05/08 05:50:20;;;;;;;0.20;0.20;;;9.50;99.90;;;;;;5032890;28;20475;-71
2023/05/08 05:52:46;;;;;;;0.15;0.15;;;9.60;99.90;;;;;;5033968;28;20025;-72
2023/05/08 05:55:11;;;;;;;0.20;0.20;;;9.60;99.90;;;;;;5033282;28;20029;-72
2023/05/08 05:57:37;;;;;;;0.20;0.20;;;9.70;99.90;;;;;;5033549;28;20018;-71
2023/05/08 06:00:04;;;;;;;0.28;0.28;;;9.90;99.90;;;;;;5014079;28;20487;-71
2023/05/08 06:02:32;;;;;;;0.20;0.20;;;10.00;99.90;;;;;;5011964;28;20050;-71
2023/05/08 06:04:58;;;;;;;0.20;0.20;;;10.00;99.90;;;;;;5013408;28;20049;-71
2023/05/08 06:07:24;;;;;;;0.20;0.20;;;10.10;99.90;;;;;;5013403;28;20038;-71
2023/05/08 06:09:50;;;;;;;0.20;0.20;;;10.20;99.90;;;;;;5013229;28;20148;-72
2023/05/08 06:12:17;;;;;;;0.20;0.20;;;10.40;99.90;;;;;;5013554;28;20026;-71
2023/05/08 06:14:42;;;;;;;0.10;0.10;;;10.40;99.90;;;;;;5013028;28;20023;-71
2023/05/08 06:17:08;;;;;;;0.20;0.20;;;10.50;99.90;;;;;;5013073;28;20022;-71
2023/05/08 06:19:34;;;;;;;0.20;0.20;;;10.60;99.90;;;;;;5029847;28;20033;-72
2023/05/08 06:21:59;;;;;;;0.20;0.20;;;10.70;99.90;;;;;;5032613;28;20057;-71
2023/05/08 06:24:25;;;;;;;0.20;0.20;;;10.80;99.90;;;;;;5032900;28;20033;-71
2023/05/08 06:26:50;;;;;;;0.20;0.20;;;10.90;99.90;;;;;;5032577;28;20033;-72
2023/05/08 06:29:16;;;;;;;0.20;0.20;;;10.90;99.90;;;;;;5032492;28;20033;-72
2023/05/08 06:31:41;;;;;;;0.20;0.20;;;10.90;99.90;;;;;;5032906;28;20030;-72
2023/05/08 06:34:08;;;;;;;0.10;0.10;;;11.00;99.90;;;;;;5032411;28;20026;-71
2023/05/08 06:36:33;;;;;;;0.20;0.20;;;11.10;99.90;;;;;;5032232;28;20386;-71
2023/05/08 06:38:59;;;;;;;0.10;0.10;;;11.30;99.90;;;;;;5032346;28;20105;-72
2023/05/08 06:41:25;;;;;;;0.13;0.13;;;11.30;99.90;;;;;;5032716;28;20105;-71
2023/05/08 06:43:50;;;;;;;0.20;0.20;;;11.30;99.90;;;;;;5032557;28;20022;-71
2023/05/08 06:46:16;;;;;;;0.20;0.20;;;11.40;99.90;;;;;;5032339;28;20510;-72
2023/05/08 06:48:41;;;;;;;0.20;0.20;;;11.50;99.90;;;;;;5032370;28;20493;-72
2023/05/08 06:51:07;;;;;;;0.20;0.20;;;11.60;99.90;;;;;;5032552;28;20032;-72
2023/05/08 06:53:32;;;;;;;0.20;0.20;;;11.60;99.90;;;;;;5032318;28;20486;-72
2023/05/08 06:55:58;;;;;;;0.20;0.20;;;11.70;99.90;;;;;;5032797;28;20028;-71
2023/05/08 06:58:23;;;;;;;0.20;0.20;;;11.80;99.90;;;;;;5032054;28;20033;-72
2023/05/08 07:00:49;;;;;;;0.20;0.20;;;11.90;99.90;;;;;;5032497;28;20021;-71
2023/05/08 07:03:15;;;;;;;0.20;0.20;;;12.00;99.90;;;;;;5032337;28;20032;-71
2023/05/08 07:05:40;;;;;;;0.20;0.20;;;12.10;99.90;;;;;;5032708;28;20021;-72
2023/05/08 07:08:06;;;;;;;0.10;0.10;;;12.30;99.90;;;;;;5031613;28;20029;-72
2023/05/08 07:10:31;;;;;;;0.10;0.10;;;12.40;99.90;;;;;;5032465;28;20026;-72
2023/05/08 07:12:57;;;;;;;0.20;0.20;;;12.50;99.90;;;;;;5032302;28;20075;-72
2023/05/08 07:15:22;;;;;;;0.20;0.20;;;12.60;99.90;;;;;;5031778;28;20044;-72
2023/05/08 07:17:48;;;;;;;0.20;0.20;;;12.70;99.90;;;;;;5032351;28;20364;-71
2023/05/08 07:20:13;;;;;;;0.10;0.10;;;12.60;99.90;;;;;;5033124;28;20104;-71
2023/05/08 07:22:39;;;;;;;0.20;0.20;;;12.60;99.90;;;;;;5035639;28;20014;-71
2023/05/08 07:25:05;;;;;;;0.20;0.20;;;12.80;99.90;;;;;;5036121;28;20021;-71
2023/05/08 07:27:31;;;;;;;0.15;0.15;;;12.80;99.90;;;;;;5035550;28;20029;-71
2023/05/08 07:29:57;;;;;;;0.20;0.20;;;12.90;99.90;;;;;;5035294;28;20036;-72
2023/05/08 07:32:23;;;;;;;0.20;0.20;;;13.00;99.90;;;;;;5035413;28;20064;-71
2023/05/08 07:34:49;;;;;;;0.20;0.20;;;13.00;99.90;;;;;;5035703;28;20564;-71
2023/05/08 07:37:14;;;;;;;0.20;0.20;;;13.10;99.90;;;;;;5035599;28;20026;-72
2023/05/08 07:39:40;;;;;;;0.10;0.10;;;13.20;99.90;;;;;;5035970;28;20097;-72
2023/05/08 07:42:05;;;;;;;0.20;0.20;;;13.30;99.90;;;;;;5035334;28;20033;-71
2023/05/08 07:44:34;;;;;;;0.20;0.20;;;13.50;99.90;;;;;;5035349;28;20036;-72
2023/05/08 07:47:00;;;;;;;0.15;0.15;;;13.70;99.90;;;;;;5035400;28;20479;-71
2023/05/08 07:49:25;;;;;;;0.10;0.10;;;13.90;99.90;;;;;;5035663;28;20041;-72
2023/05/08 07:51:51;;;;;;;0.20;0.20;;;14.00;99.90;;;;;;5034058;28;20025;-71
2023/05/08 07:54:16;;;;;;;0.10;0.10;;;14.00;99.90;;;;;;5035188;28;20026;-71
2023/05/08 07:56:42;;;;;;;0.17;0.17;;;14.10;99.90;;;;;;5034769;28;20021;-72
2023/05/08 07:59:07;;;;;;;0.10;0.10;;;14.40;99.90;;;;;;5034994;28;20036;-72
2023/05/08 08:01:33;;;;;;;0.10;0.10;;;14.50;99.90;;;;;;5033994;28;20467;-71
2023/05/08 08:03:59;;;;;;;0.10;0.10;;;14.60;99.90;;;;;;5035053;28;20404;-71
2023/05/08 08:06:25;;;;;;;0.10;0.10;;;14.80;99.90;;;;;;5036749;23;20029;-73
2023/05/08 08:08:50;;;;;;;0.10;0.10;;;14.80;99.90;;;;;;4995415;28;20481;-72
2023/05/08 08:11:16;;;;;;;0.20;0.20;;;14.90;99.90;;;;;;4995188;28;20026;-73
2023/05/08 08:13:41;;;;;;;0.20;0.20;;;15.10;99.90;;;;;;4995738;28;20424;-73
2023/05/08 08:16:07;;;;;;;0.10;0.10;;;15.20;99.90;;;;;;4995353;28;20050;-73
2023/05/08 08:18:35;;;;;;;0.10;0.10;;;15.30;99.90;;;;;;5014741;28;20022;-73
2023/05/08 08:21:05;;;;;;;0.13;0.13;;;15.50;99.90;;;;;;4996823;28;20488;-73
2023/05/08 08:23:31;;;;;;;0.20;0.20;;;15.60;99.90;;;;;;4997275;28;20030;-73
2023/05/08 08:25:57;;;;;;;0.10;0.10;;;15.80;99.90;;;;;;5015102;28;20037;-73
2023/05/08 08:28:22;;;;;;;0.20;0.20;;;15.80;99.90;;;;;;5014508;28;20109;-72
2023/05/08 08:30:48;;;;;;;0.10;0.10;;;15.80;99.90;;;;;;5014817;28;20088;-73
2023/05/08 08:33:13;;;;;;;0.20;0.20;;;15.80;99.90;;;;;;5013724;28;20029;-73
2023/05/08 08:35:39;;;;;;;0.10;0.10;;;15.90;99.90;;;;;;5014295;28;20026;-73
2023/05/08 08:38:04;;;;;;;0.10;0.10;;;15.60;99.90;;;;;;5014441;28;20025;-72
2023/05/08 08:40:30;;;;;;;0.10;0.10;;;15.60;99.90;;;;;;5014546;28;20431;-73
2023/05/08 08:42:56;;;;;;;0.10;0.10;;;15.80;99.90;;;;;;5015114;28;20527;-73
2023/05/08 08:45:22;;;;;;;0.10;0.10;;;15.80;99.90;;;;;;5013773;28;20029;-73
2023/05/08 08:47:51;;;;;;;0.13;0.13;;;16.00;99.90;;;;;;5014620;28;20507;-73
2023/05/08 08:50:18;;;;;;;0.10;0.10;;;16.40;99.90;;;;;;5014665;28;20180;-72
2023/05/08 08:53:09;;;;;;;0.10;0.10;;;16.40;99.90;;;;;;5014249;28;20037;-72
2023/05/08 08:55:39;;;;;;;0.10;0.10;;;16.10;99.90;;;;;;5014786;28;20040;-72
2023/05/08 08:58:39;;;;;;;0.10;0.10;;;16.20;99.90;;;;;;5014037;28;20117;-72
2023/05/08 09:01:08;;;;;;;0.10;0.10;;;16.40;99.90;;;;;;5014520;28;20033;-72
2023/05/08 09:03:33;;;;;;;0.10;0.10;;;16.50;99.90;;;;;;5014187;28;20026;-73
2023/05/08 09:06:02;;;;;;;0.10;0.10;;;16.90;99.90;;;;;;5014335;28;20395;-73
2023/05/08 09:08:28;;;;;;;0.10;0.10;;;17.20;99.90;;;;;;5013731;28;20034;-73
2023/05/08 09:10:57;;;;;;;0.10;0.10;;;17.30;99.90;;;;;;4996177;28;20030;-73
2023/05/08 09:13:22;;;;;;;0.10;0.10;;;17.50;99.90;;;;;;5013981;28;20048;-72
2023/05/08 09:15:51;;;;;;;0.10;0.10;;;17.50;99.90;;;;;;5013871;28;20507;-72
2023/05/08 09:18:18;;;;;;;0.10;0.10;;;17.40;99.90;;;;;;5014049;28;20044;-72
2023/05/08 09:20:43;;;;;;;0.20;0.20;;;17.30;99.90;;;;;;5014147;28;20029;-72
2023/05/08 09:23:10;;;;;;;0.15;0.15;;;17.60;99.90;;;;;;5013639;28;20022;-72
2023/05/08 09:25:46;;;;;;;0.13;0.13;;;17.80;99.90;;;;;;4996128;28;20037;-72
2023/05/08 09:28:19;;;;;;;0.10;0.10;;;18.00;99.90;;;;;;5013587;28;20034;-72
2023/05/08 09:30:55;;;;;;;0.10;0.10;;;18.20;99.90;;;;;;5013738;28;20018;-72
2023/05/08 09:33:23;;;;;;;0.10;0.10;;;18.60;99.90;;;;;;5013582;28;20022;-73
2023/05/08 09:35:48;;;;;;;0.10;0.10;;;18.70;99.90;;;;;;5013654;28;20435;-73
2023/05/08 09:38:36;;;;;;;0.10;0.10;;;18.80;99.90;;;;;;5013288;28;20022;-72
2023/05/08 09:41:15;;;;;;;0.20;0.20;;;18.50;99.90;;;;;;5013507;28;20025;-72
2023/05/08 09:43:58;;;;;;;0.10;0.10;;;18.60;99.90;;;;;;5013198;28;20055;-72
2023/05/08 09:46:25;;;;;;;0.10;0.10;;;18.50;99.90;;;;;;5013116;28;20026;-72
2023/05/08 09:49:00;;;;;;;0.10;0.10;;;18.60;99.90;;;;;;5013749;28;20030;-73
2023/05/08 09:51:27;;;;;;;0.10;0.10;;;18.60;99.90;;;;;;5013545;28;20507;-72
2023/05/08 09:53:54;;;;;;;0.10;0.10;;;18.70;99.90;;;;;;5013590;28;20080;-72
2023/05/08 09:56:38;;;;;;;0.03;0.03;;;19.00;99.90;;;;;;5013504;28;20026;-72
2023/05/08 09:59:25;;;;;;;0.10;0.10;;;18.70;99.90;;;;;;5013177;28;20022;-72
2023/05/08 10:01:51;;;;;;;0.10;0.10;;;18.60;99.90;;;;;;5013560;28;20045;-72
2023/05/08 10:04:17;;;;;;;0.10;0.10;;;18.70;99.90;;;;;;5013601;28;20029;-72
2023/05/08 10:06:54;;;;;;;0.10;0.10;;;18.40;99.90;;;;;;5013456;28;20038;-72
2023/05/08 10:09:19;;;;;;;0.10;0.10;;;18.60;99.90;;;;;;5013193;28;20022;-73
2023/05/08 10:11:52;;;;;;;0.10;0.10;;;18.60;99.90;;;;;;5013459;28;20026;-72
2023/05/08 10:14:18;;;;;;;0.10;0.10;;;18.60;99.90;;;;;;5013672;28;20054;-72
2023/05/08 10:16:47;;;;;;;0.10;0.10;;;19.00;99.90;;;;;;5013279;28;20746;-72
2023/05/08 10:19:19;;;;;;;0.10;0.10;;;18.90;99.90;;;;;;5013007;28;20161;-72
2023/05/08 10:21:48;;;;;;;0.10;0.10;;;18.80;99.90;;;;;;5013433;28;20022;-73
2023/05/08 10:24:25;;;;;;;0.10;0.10;;;18.80;99.90;;;;;;5013438;28;20037;-73
2023/05/08 10:27:02;;;;;;;0.10;0.10;;;19.00;99.90;;;;;;5013406;28;20045;-73
2023/05/08 10:29:39;;;;;;;0.10;0.10;;;19.10;99.90;;;;;;5013441;28;20065;-73
2023/05/08 10:32:09;;;;;;;0.10;0.10;;;19.20;99.90;;;;;;5013927;28;20369;-72
2023/05/08 10:34:39;;;;;;;0.10;0.10;;;19.30;99.90;;;;;;5012697;28;20083;-74
2023/05/08 10:37:07;;;;;;;0.10;0.10;;;19.30;99.90;;;;;;5013398;28;20379;-73
2023/05/08 10:39:34;;;;;;;0.10;0.10;;;19.40;99.90;;;;;;5013202;28;20049;-74
2023/05/08 10:42:00;;;;;;;0.10;0.10;;;19.80;99.90;;;;;;5013490;28;20034;-73
2023/05/08 10:44:28;;;;;;;0.10;0.10;;;20.20;99.90;;;;;;5013058;28;20049;-73
2023/05/08 10:47:13;;;;;;;0.20;0.20;;;20.00;99.90;;;;;;5012606;28;20038;-72
2023/05/08 10:49:59;;;;;;;0.10;0.10;;;20.10;99.90;;;;;;5013277;28;20030;-73
2023/05/08 10:52:53;;;;;;;0.10;0.10;;;20.00;99.90;;;;;;5013517;28;20036;-73
2023/05/08 10:55:27;;;;;;;0.10;0.10;;;20.20;99.90;;;;;;5014135;28;20037;-73
2023/05/08 10:58:02;;;;;;;;;;;20.10;99.90;;;;;;5016857;28;20062;-73
2023/05/08 11:00:32;;;;;;;0.10;0.10;;;20.30;99.90;;;;;;5016745;28;19932;-73
2023/05/08 11:03:05;;;;;;;0.00;0.00;;;20.40;99.90;;;;;;4998922;28;20033;-73
2023/05/08 11:05:47;;;;;;;0.10;0.10;;;20.70;99.90;;;;;;5016846;28;20022;-73
2023/05/08 11:08:24;;;;;;;0.10;0.10;;;21.00;99.90;;;;;;5016002;28;20052;-73
2023/05/08 11:10:58;;;;;;;0.10;0.10;;;21.00;99.90;;;;;;5016705;28;20022;-73
2023/05/08 11:13:37;;;;;;;0.05;0.05;;;20.80;99.90;;;;;;5008570;28;20387;-73
2023/05/08 11:16:05;;;;;;;0.10;0.10;;;20.70;99.90;;;;;;5015779;28;20029;-72
2023/05/08 11:18:31;;;;;;;0.10;0.10;;;20.50;99.90;;;;;;5015107;28;20514;-73
2023/05/08 11:21:04;;;;;;;0.10;0.10;;;20.40;99.90;;;;;;5015883;28;20034;-73
2023/05/08 11:23:35;;;;;;;0.03;0.03;;;20.40;99.90;;;;;;5016412;28;20025;-73
2023/05/08 11:26:05;;;;;;;0.10;0.10;;;20.30;99.90;;;;;;5015674;28;20022;-73
2023/05/08 11:28:53;;;;;;;0.05;0.05;;;20.40;99.90;;;;;;5015736;28;20113;-72
2023/05/08 11:31:19;;;;;;;0.00;0.00;;;20.50;99.90;;;;;;5016251;28;20030;-73
2023/05/08 11:33:44;;;;;;;0.10;0.10;;;21.00;99.90;;;;;;5016187;28;20032;-72
2023/05/08 11:36:19;;;;;;;0.10;0.10;;;21.10;99.90;;;;;;5016103;28;20101;-72
2023/05/08 11:39:06;;;;;;;0.10;0.10;;;21.00;99.90;;;;;;5016132;28;20041;-72
2023/05/08 11:41:32;;;;;;;0.10;0.10;;;20.90;99.90;;;;;;4998443;28;20045;-72
2023/05/08 11:44:08;;;;;;;0.10;0.10;;;20.90;99.90;;;;;;5016269;28;20034;-73
2023/05/08 11:46:38;;;;;;;0.10;0.10;;;21.30;99.90;;;;;;4998590;28;20372;-73
2023/05/08 11:49:04;;;;;;;0.10;0.10;;;21.30;99.90;;;;;;5015486;28;20370;-73
2023/05/08 11:51:31;;;;;;;0.10;0.10;;;21.80;99.90;;;;;;5015893;28;20041;-73
2023/05/08 11:53:58;;;;;;;0.10;0.10;;;22.10;99.90;;;;;;5015844;28;20026;-73
2023/05/08 11:56:25;;;;;;;0.10;0.10;;;22.50;99.90;;;;;;5015828;28;20026;-73
2023/05/08 11:59:04;;;;;;;0.10;0.10;;;22.40;99.90;;;;;;5015924;28;20091;-73
2023/05/08 12:01:31;;;;;;;0.00;0.00;;;22.90;99.90;;;;;;5015693;28;20422;-73
2023/05/08 12:04:05;;;;;;;0.00;0.00;;;23.20;99.90;;;;;;5015984;28;20106;-73
2023/05/08 12:06:32;;;;;;;0.00;0.00;;;23.30;99.90;;;;;;5016121;28;20530;-73
2023/05/08 12:08:59;;;;;;;0.00;0.00;;;23.60;99.90;;;;;;5016394;28;20610;-73
2023/05/08 12:11:25;;;;;;;0.00;0.00;;;24.00;99.90;;;;;;5016303;28;20032;-72
2023/05/08 12:13:52;;;;;;;0.10;0.10;;;24.00;99.90;;;;;;5015316;28;20022;-73
2023/05/08 12:16:17;;;;;;;0.00;0.00;;;24.30;99.90;;;;;;5014851;28;20021;-73
2023/05/08 12:18:43;;;;;;;0.00;0.00;;;24.90;99.90;;;;;;5015374;28;20112;-73
2023/05/08 12:21:10;;;;;;;0.00;0.00;;;24.70;99.90;;;;;;5015878;28;20034;-73
2023/05/08 12:23:35;;;;;;;0.00;0.00;;;24.60;99.90;;;;;;5015320;28;20026;-73
2023/05/08 12:26:01;;;;;;;0.00;0.00;;;24.30;99.90;;;;;;5015269;28;20025;-73
2023/05/08 12:28:27;;;;;;;0.00;0.00;;;24.70;99.90;;;;;;5014536;28;20048;-73
2023/05/08 12:30:53;;;;;;;0.00;0.00;;;24.50;99.90;;;;;;5015183;28;20026;-73
2023/05/08 12:33:19;;;;;;;0.00;0.00;;;24.00;99.90;;;;;;5014962;28;20026;-73
2023/05/08 12:35:45;;;;;;;0.00;0.00;;;24.00;99.90;;;;;;5015033;28;20030;-73
2023/05/08 12:38:11;;;;;;;0.00;0.00;;;24.40;99.90;;;;;;5014468;28;20442;-73
2023/05/08 12:40:51;;;;;;;0.00;0.00;;;24.90;99.90;;;;;;5015082;28;20079;-73
2023/05/08 12:43:17;;;;;;;0.00;0.00;;;24.90;99.90;;;;;;5014887;28;20033;-73
2023/05/08 12:45:43;;;;;;;0.00;0.00;;;25.40;99.90;;;;;;4996634;28;20035;-73
2023/05/08 12:48:12;;;;;;;0.00;0.00;;;25.40;99.90;;;;;;4995493;28;20420;-73
2023/05/08 12:50:40;;;;;;;0.00;0.00;;;25.50;99.90;;;;;;4995509;28;20025;-73
2023/05/08 12:53:13;;;;;;;0.00;0.00;;;26.00;99.90;;;;;;4994963;28;20026;-73
2023/05/08 12:55:50;;;;;;;0.00;0.00;;;25.30;99.90;;;;;;4994260;28;20480;-73
2023/05/08 12:58:16;;;;;;;0.00;0.00;;;25.50;99.90;;;;;;4997386;28;20019;-72
2023/05/08 13:00:51;;;;;;;0.00;0.00;;;25.80;99.90;;;;;;5014189;28;20037;-72
2023/05/08 13:03:25;;;;;;;0.00;0.00;;;26.30;99.90;;;;;;5014542;28;20032;-72
2023/05/08 13:05:51;;;;;;;0.00;0.00;;;26.40;99.80;;;;;;5014058;28;20021;-72